Currently 50°F in De Luz, California, USA
50°F
50°F / 45°F
calm
0.01"
Saturday, January 21, 2017 9:30 AM PST

De Luz, California Weather Summary
Last 36 Hours

Temperature Winds Hourly Humidity Dewpoint
Time Report Norm Report Norm Max Gusts Precip. Rpt. Norm Rpt. Norm Pressure
1Sat 09:30 AM  49.8°F  59°F  calm  1 mph  none  0.00"  79%  50%  43°F  39°F  29.89"
2Sat 09:20 AM  49.8°F  58°F  calm  calm  none  ----  80%  51%  44°F  39°F  29.87"
Sat 09:00 AM  48.6°F  57°F  calm  calm  7 mph  0.00"  81%  52%  43°F  39°F  29.86"
Sat 08:01 AM  46.4°F  54°F  1 mph SW  calm  10 mph  0.00"  87%  54%  43°F  37°F  29.82"
Sat 07:00 AM  44.8°F  52°F  calm  calm  5 mph  0.00"  89%  54%  42°F  36°F  29.78"
Sat 06:00 AM  45.1°F  52°F  calm  calm  6 mph  0.00"  91%  54%  43°F  36°F  29.74"
3Sat 05:32 AM  44.6°F  52°F  calm  calm  none  ----  90%  54%  42°F  36°F  29.72"
Sat 05:00 AM  44.9°F  53°F  1 mph W  calm  6 mph  0.00"  89%  54%  42°F  36°F  29.71"
Sat 04:00 AM  45.2°F  53°F  1 mph SW  calm  4 mph  0.00"  91%  54%  43°F  36°F  29.68"
Sat 03:01 AM  45.5°F  53°F  N/A  calm  N/A  0.01"  90%  55%  43°F  36°F  29.65"
Sat 02:00 AM  45.8°F  53°F  calm  calm  7 mph  0.00"  90%  55%  43°F  37°F  29.64"
Sat 01:00 AM  45.5°F  53°F  1 mph W  calm  7 mph  0.00"  92%  56%  43°F  37°F  29.61"
Sat 12:00 AM  45.4°F  54°F  1 mph SW  calm  7 mph  0.01"  93%  56%  43°F  38°F  29.60"
Fri 11:01 PM  45.2°F  54°F  1 mph W  calm  11 mph  0.04"  94%  57%  44°F  38°F  29.60"
Fri 10:00 PM  47.9°F  54°F  2 mph SW  calm  7 mph  0.01"  96%  57%  47°F  39°F  29.57"
Fri 09:00 PM  47.4°F  54°F  1 mph S  calm  7 mph  0.01"  96%  58%  46°F  39°F  29.56"
Fri 08:00 PM  47.4°F  55°F  2 mph W  calm  7 mph  0.00"  97%  58%  47°F  40°F  29.55"
Fri 07:00 PM  48.8°F  56°F  calm  calm  7 mph  0.00"  98%  59%  48°F  41°F  29.53"
Fri 06:01 PM  47.9°F  57°F  1 mph W  calm  13 mph  0.03"  98%  56%  47°F  41°F  29.51"
Fri 05:00 PM  48.6°F  60°F  1 mph W  1 mph  6 mph  0.02"  98%  51%  48°F  42°F  29.49"
Fri 04:00 PM  49.9°F  64°F  2 mph S  1 mph  16 mph  0.09"  99%  46%  50°F  42°F  29.48"
Fri 03:00 PM  51.3°F  66°F  2 mph W  1 mph  13 mph  0.32"  99%  42%  51°F  41°F  29.46"
Fri 02:00 PM  50.8°F  67°F  2 mph NW  1 mph  25 mph  0.60"  99%  39%  51°F  40°F  29.50"
Fri 01:01 PM  48.9°F  67°F  7 mph SW  1 mph  24 mph  0.52"  99%  39%  49°F  40°F  29.50"
Fri 12:00 PM  49.2°F  65°F  5 mph S  1 mph  22 mph  0.15"  99%  40%  49°F  40°F  29.58"
Fri 11:00 AM  49.2°F  64°F  7 mph SW  1 mph  17 mph  0.14"  99%  43%  49°F  40°F  29.66"
Fri 10:00 AM  48.9°F  60°F  5 mph S  1 mph  14 mph  0.13"  99%  47%  49°F  39°F  29.71"
Fri 09:00 AM  48.5°F  57°F  2 mph SW  calm  11 mph  0.10"  98%  51%  48°F  38°F  29.73"
Fri 08:00 AM  47.9°F  53°F  1 mph W  calm  5 mph  0.19"  98%  53%  47°F  36°F  29.75"
Fri 07:01 AM  47.7°F  52°F  1 mph S  calm  6 mph  0.03"  98%  52%  47°F  34°F  29.76"
Fri 06:00 AM  48.0°F  52°F  calm  calm  8 mph  0.01"  98%  52%  47°F  35°F  29.79"
Fri 05:00 AM  48.8°F  53°F  1 mph S  calm  5 mph  0.03"  97%  52%  48°F  35°F  29.77"
Fri 04:00 AM  49.4°F  53°F  calm  calm  3 mph  0.01"  97%  52%  49°F  35°F  29.77"
Fri 03:00 AM  48.8°F  53°F  calm  calm  3 mph  0.00"  97%  52%  48°F  35°F  29.81"
Fri 02:01 AM  48.6°F  53°F  calm  calm  4 mph  0.02"  97%  53%  48°F  36°F  29.83"
Fri 01:00 AM  48.6°F  53°F  calm  calm  7 mph  0.00"  96%  53%  47°F  36°F  29.83"
Fri 12:00 AM  49.2°F  54°F  1 mph W  calm  6 mph  0.02"  96%  54%  48°F  37°F  29.84"
Thu 11:00 PM  49.8°F  54°F  1 mph S  calm  7 mph  0.00"  96%  55%  49°F  37°F  29.87"
Thu 10:00 PM  49.8°F  54°F  1 mph SW  calm  7 mph  0.01"  95%  55%  48°F  38°F  29.89"

  1. Current weather data. No green row appears if the current weather data is also the high or low for the current day.
  2. High temperature for the current day.
  3. Low temperature for the current day.

The De Luz, California weather pages are a service of WeatherCurrents. De Luz is located west of the Temecula Valley and north of Fallbrook, on the Santa Rosa Plateau, in southwestern Riverside County, California.
Copyright ©Sat Jan 21 09:32:06 PST 2017  WeatherCurrents. All rights reserved. - Submit questions and comments - Privacy Policy

This page automatically refreshes every 10 minutes.